sensor_id;sensor_type;location;lat;lon;timestamp;P1;durP1;ratioP1;P2;durP2;ratioP2
68803;SDS011;55787;52.678;13.314;2022-09-13T00:00:56;14.80;;;7.10;;
68803;SDS011;55787;52.678;13.314;2022-09-13T00:03:23;11.93;;;6.53;;
68803;SDS011;55787;52.678;13.314;2022-09-13T00:05:49;12.97;;;7.10;;
68803;SDS011;55787;52.678;13.314;2022-09-13T00:08:16;13.25;;;6.75;;
68803;SDS011;55787;52.678;13.314;2022-09-13T00:10:43;13.85;;;6.63;;
68803;SDS011;55787;52.678;13.314;2022-09-13T00:13:11;12.73;;;6.53;;
68803;SDS011;55787;52.678;13.314;2022-09-13T00:15:43;12.90;;;7.18;;
68803;SDS011;55787;52.678;13.314;2022-09-13T00:18:11;14.47;;;7.37;;
68803;SDS011;55787;52.678;13.314;2022-09-13T00:20:38;13.35;;;7.47;;
68803;SDS011;55787;52.678;13.314;2022-09-13T00:23:04;13.77;;;7.53;;
68803;SDS011;55787;52.678;13.314;2022-09-13T00:25:31;15.55;;;7.80;;
68803;SDS011;55787;52.678;13.314;2022-09-13T00:27:57;15.75;;;7.55;;
68803;SDS011;55787;52.678;13.314;2022-09-13T00:30:24;16.93;;;7.90;;
68803;SDS011;55787;52.678;13.314;2022-09-13T00:32:50;14.88;;;7.60;;
68803;SDS011;55787;52.678;13.314;2022-09-13T00:35:17;14.15;;;7.90;;
68803;SDS011;55787;52.678;13.314;2022-09-13T00:37:43;14.88;;;7.70;;
68803;SDS011;55787;52.678;13.314;2022-09-13T00:40:10;15.20;;;7.82;;
68803;SDS011;55787;52.678;13.314;2022-09-13T00:42:37;13.70;;;7.50;;
68803;SDS011;55787;52.678;13.314;2022-09-13T00:47:37;15.18;;;7.28;;
68803;SDS011;55787;52.678;13.314;2022-09-13T00:50:27;13.63;;;7.53;;
68803;SDS011;55787;52.678;13.314;2022-09-13T00:53:02;13.57;;;7.05;;
68803;SDS011;55787;52.678;13.314;2022-09-13T00:55:38;14.93;;;7.20;;
68803;SDS011;55787;52.678;13.314;2022-09-13T00:58:15;15.48;;;7.35;;
68803;SDS011;55787;52.678;13.314;2022-09-13T01:00:46;13.90;;;7.75;;
68803;SDS011;55787;52.678;13.314;2022-09-13T01:03:14;14.75;;;7.53;;
68803;SDS011;55787;52.678;13.314;2022-09-13T01:05:45;13.07;;;7.22;;
68803;SDS011;55787;52.678;13.314;2022-09-13T01:08:15;13.90;;;7.13;;
68803;SDS011;55787;52.678;13.314;2022-09-13T01:10:48;13.00;;;6.88;;
68803;SDS011;55787;52.678;13.314;2022-09-13T01:13:17;13.75;;;7.07;;
68803;SDS011;55787;52.678;13.314;2022-09-13T01:15:46;13.45;;;7.13;;
68803;SDS011;55787;52.678;13.314;2022-09-13T01:18:12;12.80;;;6.65;;
68803;SDS011;55787;52.678;13.314;2022-09-13T01:29:31;12.90;;;6.72;;
68803;SDS011;55787;52.678;13.314;2022-09-13T01:37:45;11.80;;;6.30;;
68803;SDS011;55787;52.678;13.314;2022-09-13T01:43:03;12.35;;;6.30;;
68803;SDS011;55787;52.678;13.314;2022-09-13T01:45:48;12.52;;;6.40;;
68803;SDS011;55787;52.678;13.314;2022-09-13T01:51:01;15.15;;;7.50;;
68803;SDS011;55787;52.678;13.314;2022-09-13T01:53:46;13.48;;;6.55;;
68803;SDS011;55787;52.678;13.314;2022-09-13T01:59:08;12.40;;;6.30;;
68803;SDS011;55787;52.678;13.314;2022-09-13T02:02:00;11.63;;;5.67;;
68803;SDS011;55787;52.678;13.314;2022-09-13T02:04:43;12.23;;;6.53;;
68803;SDS011;55787;52.678;13.314;2022-09-13T02:07:18;12.57;;;6.20;;
68803;SDS011;55787;52.678;13.314;2022-09-13T02:09:48;11.45;;;5.80;;
68803;SDS011;55787;52.678;13.314;2022-09-13T02:12:22;13.05;;;6.25;;
68803;SDS011;55787;52.678;13.314;2022-09-13T02:14:55;11.17;;;5.90;;
68803;SDS011;55787;52.678;13.314;2022-09-13T02:17:30;11.13;;;5.90;;
68803;SDS011;55787;52.678;13.314;2022-09-13T02:20:02;10.93;;;5.72;;
68803;SDS011;55787;52.678;13.314;2022-09-13T02:22:38;11.77;;;5.70;;
68803;SDS011;55787;52.678;13.314;2022-09-13T02:25:12;11.63;;;6.07;;
68803;SDS011;55787;52.678;13.314;2022-09-13T02:27:42;11.80;;;6.00;;
68803;SDS011;55787;52.678;13.314;2022-09-13T02:30:12;11.40;;;6.10;;
68803;SDS011;55787;52.678;13.314;2022-09-13T02:35:19;11.15;;;5.65;;
68803;SDS011;55787;52.678;13.314;2022-09-13T02:37:52;11.25;;;5.50;;
68803;SDS011;55787;52.678;13.314;2022-09-13T02:40:24;11.10;;;5.57;;
68803;SDS011;55787;52.678;13.314;2022-09-13T02:42:59;10.60;;;5.40;;
68803;SDS011;55787;52.678;13.314;2022-09-13T02:45:32;12.05;;;5.95;;
68803;SDS011;55787;52.678;13.314;2022-09-13T02:48:09;11.73;;;5.85;;
68803;SDS011;55787;52.678;13.314;2022-09-13T02:53:52;12.30;;;6.40;;
68803;SDS011;55787;52.678;13.314;2022-09-13T02:59:18;12.52;;;6.60;;
68803;SDS011;55787;52.678;13.314;2022-09-13T03:01:48;12.10;;;6.68;;
68803;SDS011;55787;52.678;13.314;2022-09-13T03:04:18;12.85;;;6.55;;
68803;SDS011;55787;52.678;13.314;2022-09-13T03:06:44;12.13;;;6.53;;
68803;SDS011;55787;52.678;13.314;2022-09-13T03:09:10;13.82;;;6.20;;
68803;SDS011;55787;52.678;13.314;2022-09-13T03:11:52;12.07;;;6.10;;
68803;SDS011;55787;52.678;13.314;2022-09-13T03:14:35;12.35;;;6.25;;
68803;SDS011;55787;52.678;13.314;2022-09-13T03:19:55;11.33;;;5.97;;
68803;SDS011;55787;52.678;13.314;2022-09-13T03:27:35;10.80;;;5.72;;
68803;SDS011;55787;52.678;13.314;2022-09-13T03:30:12;13.35;;;6.47;;
68803;SDS011;55787;52.678;13.314;2022-09-13T03:33:01;11.90;;;6.37;;
68803;SDS011;55787;52.678;13.314;2022-09-13T03:35:48;12.88;;;6.35;;
68803;SDS011;55787;52.678;13.314;2022-09-13T03:38:18;14.27;;;7.47;;
68803;SDS011;55787;52.678;13.314;2022-09-13T03:40:52;13.27;;;6.60;;
68803;SDS011;55787;52.678;13.314;2022-09-13T03:43:30;13.38;;;6.72;;
68803;SDS011;55787;52.678;13.314;2022-09-13T03:46:04;12.23;;;6.63;;
68803;SDS011;55787;52.678;13.314;2022-09-13T03:48:36;12.80;;;6.40;;
68803;SDS011;55787;52.678;13.314;2022-09-13T03:51:05;12.35;;;6.43;;
68803;SDS011;55787;52.678;13.314;2022-09-13T03:53:32;12.55;;;6.30;;
68803;SDS011;55787;52.678;13.314;2022-09-13T03:56:16;13.52;;;6.75;;
68803;SDS011;55787;52.678;13.314;2022-09-13T03:58:48;15.23;;;6.60;;
68803;SDS011;55787;52.678;13.314;2022-09-13T04:01:16;12.48;;;6.78;;
68803;SDS011;55787;52.678;13.314;2022-09-13T04:03:45;13.68;;;6.80;;
68803;SDS011;55787;52.678;13.314;2022-09-13T04:06:11;11.88;;;6.45;;
68803;SDS011;55787;52.678;13.314;2022-09-13T04:08:38;12.77;;;6.45;;
68803;SDS011;55787;52.678;13.314;2022-09-13T04:11:04;11.97;;;6.60;;
68803;SDS011;55787;52.678;13.314;2022-09-13T04:13:31;12.10;;;6.60;;
68803;SDS011;55787;52.678;13.314;2022-09-13T04:16:01;12.95;;;6.82;;
68803;SDS011;55787;52.678;13.314;2022-09-13T04:18:29;11.55;;;6.22;;
68803;SDS011;55787;52.678;13.314;2022-09-13T04:20:57;12.05;;;6.30;;
68803;SDS011;55787;52.678;13.314;2022-09-13T04:23:26;12.80;;;6.70;;
68803;SDS011;55787;52.678;13.314;2022-09-13T04:25:53;12.88;;;6.22;;
68803;SDS011;55787;52.678;13.314;2022-09-13T04:28:20;13.52;;;6.88;;
68803;SDS011;55787;52.678;13.314;2022-09-13T04:30:48;12.43;;;6.47;;
68803;SDS011;55787;52.678;13.314;2022-09-13T04:33:14;13.00;;;6.78;;
68803;SDS011;55787;52.678;13.314;2022-09-13T04:35:42;12.50;;;7.07;;
68803;SDS011;55787;52.678;13.314;2022-09-13T04:38:09;13.27;;;7.15;;
68803;SDS011;55787;52.678;13.314;2022-09-13T04:40:35;13.80;;;7.57;;
68803;SDS011;55787;52.678;13.314;2022-09-13T04:43:02;13.50;;;7.30;;
68803;SDS011;55787;52.678;13.314;2022-09-13T04:45:28;13.43;;;7.15;;
68803;SDS011;55787;52.678;13.314;2022-09-13T04:47:55;13.17;;;7.43;;
68803;SDS011;55787;52.678;13.314;2022-09-13T04:50:22;13.63;;;7.32;;
68803;SDS011;55787;52.678;13.314;2022-09-13T04:52:49;14.20;;;7.40;;
68803;SDS011;55787;52.678;13.314;2022-09-13T04:55:19;14.05;;;7.72;;
68803;SDS011;55787;52.678;13.314;2022-09-13T04:57:45;14.40;;;7.85;;
68803;SDS011;55787;52.678;13.314;2022-09-13T05:00:11;15.23;;;8.07;;
68803;SDS011;55787;52.678;13.314;2022-09-13T05:02:38;15.02;;;8.77;;
68803;SDS011;55787;52.678;13.314;2022-09-13T05:05:05;14.80;;;8.23;;
68803;SDS011;55787;52.678;13.314;2022-09-13T05:07:31;14.48;;;8.18;;
68803;SDS011;55787;52.678;13.314;2022-09-13T05:09:57;14.30;;;8.07;;
68803;SDS011;55787;52.678;13.314;2022-09-13T05:12:24;13.90;;;7.60;;
68803;SDS011;55787;52.678;13.314;2022-09-13T05:14:50;13.57;;;7.20;;
68803;SDS011;55787;52.678;13.314;2022-09-13T05:17:17;14.30;;;7.70;;
68803;SDS011;55787;52.678;13.314;2022-09-13T05:19:43;13.02;;;7.57;;
68803;SDS011;55787;52.678;13.314;2022-09-13T05:22:09;14.48;;;8.13;;
68803;SDS011;55787;52.678;13.314;2022-09-13T05:24:36;16.43;;;8.50;;
68803;SDS011;55787;52.678;13.314;2022-09-13T05:27:02;15.82;;;8.35;;
68803;SDS011;55787;52.678;13.314;2022-09-13T05:29:29;15.48;;;8.77;;
68803;SDS011;55787;52.678;13.314;2022-09-13T05:31:55;16.23;;;8.73;;
68803;SDS011;55787;52.678;13.314;2022-09-13T05:34:21;17.13;;;8.90;;
68803;SDS011;55787;52.678;13.314;2022-09-13T05:36:48;15.43;;;8.63;;
68803;SDS011;55787;52.678;13.314;2022-09-13T05:39:19;15.15;;;8.25;;
68803;SDS011;55787;52.678;13.314;2022-09-13T05:42:07;14.80;;;8.70;;
68803;SDS011;55787;52.678;13.314;2022-09-13T05:44:33;15.02;;;8.40;;
68803;SDS011;55787;52.678;13.314;2022-09-13T05:47:00;17.55;;;8.77;;
68803;SDS011;55787;52.678;13.314;2022-09-13T05:49:26;15.30;;;8.93;;
68803;SDS011;55787;52.678;13.314;2022-09-13T05:51:52;16.15;;;8.43;;
68803;SDS011;55787;52.678;13.314;2022-09-13T05:54:19;14.52;;;8.10;;
68803;SDS011;55787;52.678;13.314;2022-09-13T05:56:45;15.45;;;8.90;;
68803;SDS011;55787;52.678;13.314;2022-09-13T05:59:12;17.38;;;9.25;;
68803;SDS011;55787;52.678;13.314;2022-09-13T06:01:42;14.30;;;8.50;;
68803;SDS011;55787;52.678;13.314;2022-09-13T06:04:09;15.15;;;8.25;;
68803;SDS011;55787;52.678;13.314;2022-09-13T06:06:37;15.23;;;8.52;;
68803;SDS011;55787;52.678;13.314;2022-09-13T06:09:04;16.05;;;8.40;;
68803;SDS011;55787;52.678;13.314;2022-09-13T06:11:33;14.18;;;7.88;;
68803;SDS011;55787;52.678;13.314;2022-09-13T06:13:59;18.30;;;8.77;;
68803;SDS011;55787;52.678;13.314;2022-09-13T06:16:26;18.20;;;9.30;;
68803;SDS011;55787;52.678;13.314;2022-09-13T06:18:52;21.25;;;12.27;;
68803;SDS011;55787;52.678;13.314;2022-09-13T06:21:20;15.80;;;8.95;;
68803;SDS011;55787;52.678;13.314;2022-09-13T06:23:53;15.48;;;8.60;;
68803;SDS011;55787;52.678;13.314;2022-09-13T06:26:21;15.27;;;8.90;;
68803;SDS011;55787;52.678;13.314;2022-09-13T06:28:50;15.50;;;8.63;;
68803;SDS011;55787;52.678;13.314;2022-09-13T06:31:19;15.52;;;8.98;;
68803;SDS011;55787;52.678;13.314;2022-09-13T06:33:47;15.80;;;9.02;;
68803;SDS011;55787;52.678;13.314;2022-09-13T06:36:17;15.38;;;8.90;;
68803;SDS011;55787;52.678;13.314;2022-09-13T06:38:45;17.53;;;8.70;;
68803;SDS011;55787;52.678;13.314;2022-09-13T06:41:14;18.52;;;8.90;;
68803;SDS011;55787;52.678;13.314;2022-09-13T06:43:43;14.77;;;8.23;;
68803;SDS011;55787;52.678;13.314;2022-09-13T06:46:11;16.25;;;8.35;;
68803;SDS011;55787;52.678;13.314;2022-09-13T06:48:46;13.95;;;8.40;;
68803;SDS011;55787;52.678;13.314;2022-09-13T06:51:15;14.27;;;8.27;;
68803;SDS011;55787;52.678;13.314;2022-09-13T06:53:43;15.65;;;7.90;;
68803;SDS011;55787;52.678;13.314;2022-09-13T06:56:12;15.10;;;8.25;;
68803;SDS011;55787;52.678;13.314;2022-09-13T06:58:41;14.85;;;7.65;;
68803;SDS011;55787;52.678;13.314;2022-09-13T07:01:10;15.95;;;8.35;;
68803;SDS011;55787;52.678;13.314;2022-09-13T07:03:43;13.83;;;7.50;;
68803;SDS011;55787;52.678;13.314;2022-09-13T07:06:13;14.30;;;7.45;;
68803;SDS011;55787;52.678;13.314;2022-09-13T07:08:47;14.13;;;7.95;;
68803;SDS011;55787;52.678;13.314;2022-09-13T07:11:16;13.80;;;7.82;;
68803;SDS011;55787;52.678;13.314;2022-09-13T07:13:49;15.45;;;7.25;;
68803;SDS011;55787;52.678;13.314;2022-09-13T07:16:22;13.07;;;7.70;;
68803;SDS011;55787;52.678;13.314;2022-09-13T07:18:51;14.50;;;7.35;;
68803;SDS011;55787;52.678;13.314;2022-09-13T07:21:18;15.13;;;7.85;;
68803;SDS011;55787;52.678;13.314;2022-09-13T07:23:45;15.73;;;8.02;;
68803;SDS011;55787;52.678;13.314;2022-09-13T07:26:12;14.50;;;7.22;;
68803;SDS011;55787;52.678;13.314;2022-09-13T07:28:42;13.73;;;7.73;;
68803;SDS011;55787;52.678;13.314;2022-09-13T07:33:38;14.20;;;7.80;;
68803;SDS011;55787;52.678;13.314;2022-09-13T07:36:06;14.63;;;7.32;;
68803;SDS011;55787;52.678;13.314;2022-09-13T07:38:37;13.85;;;7.72;;
68803;SDS011;55787;52.678;13.314;2022-09-13T07:41:05;15.07;;;7.30;;
68803;SDS011;55787;52.678;13.314;2022-09-13T07:43:34;13.40;;;7.13;;
68803;SDS011;55787;52.678;13.314;2022-09-13T07:46:05;12.80;;;6.43;;
68803;SDS011;55787;52.678;13.314;2022-09-13T07:48:34;13.77;;;7.22;;
68803;SDS011;55787;52.678;13.314;2022-09-13T07:51:06;14.40;;;6.93;;
68803;SDS011;55787;52.678;13.314;2022-09-13T07:53:37;12.67;;;6.63;;
68803;SDS011;55787;52.678;13.314;2022-09-13T07:56:06;13.45;;;6.47;;
68803;SDS011;55787;52.678;13.314;2022-09-13T07:58:43;13.05;;;6.50;;
68803;SDS011;55787;52.678;13.314;2022-09-13T08:01:12;13.05;;;6.53;;
68803;SDS011;55787;52.678;13.314;2022-09-13T08:03:41;11.63;;;6.85;;
68803;SDS011;55787;52.678;13.314;2022-09-13T08:06:08;12.53;;;6.50;;
68803;SDS011;55787;52.678;13.314;2022-09-13T08:08:35;15.90;;;6.80;;
68803;SDS011;55787;52.678;13.314;2022-09-13T08:11:03;11.40;;;6.25;;
68803;SDS011;55787;52.678;13.314;2022-09-13T08:13:31;11.77;;;6.30;;
68803;SDS011;55787;52.678;13.314;2022-09-13T08:16:02;14.68;;;7.32;;
68803;SDS011;55787;52.678;13.314;2022-09-13T08:18:29;11.90;;;6.03;;
68803;SDS011;55787;52.678;13.314;2022-09-13T08:20:57;13.02;;;7.00;;
68803;SDS011;55787;52.678;13.314;2022-09-13T08:23:24;12.00;;;6.78;;
68803;SDS011;55787;52.678;13.314;2022-09-13T08:25:51;13.05;;;6.40;;
68803;SDS011;55787;52.678;13.314;2022-09-13T08:28:19;11.85;;;6.15;;
68803;SDS011;55787;52.678;13.314;2022-09-13T08:30:52;12.97;;;6.53;;
68803;SDS011;55787;52.678;13.314;2022-09-13T08:33:19;12.63;;;6.60;;
68803;SDS011;55787;52.678;13.314;2022-09-13T08:35:48;13.35;;;6.70;;
68803;SDS011;55787;52.678;13.314;2022-09-13T08:38:18;12.05;;;6.72;;
68803;SDS011;55787;52.678;13.314;2022-09-13T08:40:48;11.75;;;6.70;;
68803;SDS011;55787;52.678;13.314;2022-09-13T08:43:21;13.67;;;6.50;;
68803;SDS011;55787;52.678;13.314;2022-09-13T08:46:20;11.90;;;6.20;;
68803;SDS011;55787;52.678;13.314;2022-09-13T08:48:50;11.75;;;6.38;;
68803;SDS011;55787;52.678;13.314;2022-09-13T08:54:12;13.35;;;6.53;;
68803;SDS011;55787;52.678;13.314;2022-09-13T08:56:50;11.77;;;6.33;;
68803;SDS011;55787;52.678;13.314;2022-09-13T08:59:35;11.73;;;6.40;;
68803;SDS011;55787;52.678;13.314;2022-09-13T09:15:28;10.98;;;5.72;;
68803;SDS011;55787;52.678;13.314;2022-09-13T09:18:02;10.80;;;5.20;;
68803;SDS011;55787;52.678;13.314;2022-09-13T09:20:34;10.80;;;5.65;;
68803;SDS011;55787;52.678;13.314;2022-09-13T09:23:27;10.13;;;5.77;;
68803;SDS011;55787;52.678;13.314;2022-09-13T09:26:04;10.55;;;5.35;;
68803;SDS011;55787;52.678;13.314;2022-09-13T09:28:39;10.40;;;5.07;;
68803;SDS011;55787;52.678;13.314;2022-09-13T09:39:26;10.55;;;5.40;;
68803;SDS011;55787;52.678;13.314;2022-09-13T09:41:57;11.07;;;5.63;;
68803;SDS011;55787;52.678;13.314;2022-09-13T09:44:26;10.73;;;5.35;;
68803;SDS011;55787;52.678;13.314;2022-09-13T09:46:57;10.98;;;5.45;;
68803;SDS011;55787;52.678;13.314;2022-09-13T09:49:44;10.57;;;5.30;;
68803;SDS011;55787;52.678;13.314;2022-09-13T09:55:39;10.45;;;5.60;;
68803;SDS011;55787;52.678;13.314;2022-09-13T09:58:11;11.43;;;5.65;;
68803;SDS011;55787;52.678;13.314;2022-09-13T10:00:51;14.40;;;5.70;;
68803;SDS011;55787;52.678;13.314;2022-09-13T10:03:23;12.30;;;6.03;;
68803;SDS011;55787;52.678;13.314;2022-09-13T10:06:03;11.27;;;6.05;;
68803;SDS011;55787;52.678;13.314;2022-09-13T10:08:32;10.82;;;5.47;;
68803;SDS011;55787;52.678;13.314;2022-09-13T10:11:00;10.80;;;5.63;;
68803;SDS011;55787;52.678;13.314;2022-09-13T10:13:27;10.85;;;5.45;;
68803;SDS011;55787;52.678;13.314;2022-09-13T10:15:58;11.20;;;5.40;;
68803;SDS011;55787;52.678;13.314;2022-09-13T10:18:28;10.90;;;5.20;;
68803;SDS011;55787;52.678;13.314;2022-09-13T10:23:48;10.82;;;4.90;;
68803;SDS011;55787;52.678;13.314;2022-09-13T10:26:17;10.85;;;5.43;;
68803;SDS011;55787;52.678;13.314;2022-09-13T10:28:48;10.10;;;4.80;;
68803;SDS011;55787;52.678;13.314;2022-09-13T10:31:27;10.50;;;4.90;;
68803;SDS011;55787;52.678;13.314;2022-09-13T10:34:00;10.15;;;5.35;;
68803;SDS011;55787;52.678;13.314;2022-09-13T10:36:33;11.50;;;5.20;;
68803;SDS011;55787;52.678;13.314;2022-09-13T10:39:18;10.30;;;5.25;;
68803;SDS011;55787;52.678;13.314;2022-09-13T10:41:48;11.43;;;5.30;;
68803;SDS011;55787;52.678;13.314;2022-09-13T10:44:59;11.43;;;5.25;;
68803;SDS011;55787;52.678;13.314;2022-09-13T10:47:11;11.00;;;5.00;;
68803;SDS011;55787;52.678;13.314;2022-09-13T10:49:47;10.50;;;5.35;;
68803;SDS011;55787;52.678;13.314;2022-09-13T10:52:32;10.90;;;5.25;;
68803;SDS011;55787;52.678;13.314;2022-09-13T11:12:07;10.98;;;5.07;;
68803;SDS011;55787;52.678;13.314;2022-09-13T11:22:57;10.53;;;5.50;;
68803;SDS011;55787;52.678;13.314;2022-09-13T11:31:27;11.27;;;5.43;;
68803;SDS011;55787;52.678;13.314;2022-09-13T11:44:47;14.55;;;5.90;;
68803;SDS011;55787;52.678;13.314;2022-09-13T11:48:00;12.30;;;6.03;;
68803;SDS011;55787;52.678;13.314;2022-09-13T11:50:47;10.67;;;5.27;;
68803;SDS011;55787;52.678;13.314;2022-09-13T11:55:57;11.23;;;5.70;;
68803;SDS011;55787;52.678;13.314;2022-09-13T12:01:00;12.98;;;5.75;;
68803;SDS011;55787;52.678;13.314;2022-09-13T12:03:40;10.90;;;5.27;;
68803;SDS011;55787;52.678;13.314;2022-09-13T12:08:47;12.52;;;5.65;;
68803;SDS011;55787;52.678;13.314;2022-09-13T12:11:21;12.00;;;5.75;;
68803;SDS011;55787;52.678;13.314;2022-09-13T12:13:53;12.13;;;5.90;;
68803;SDS011;55787;52.678;13.314;2022-09-13T12:16:37;12.10;;;6.80;;
68803;SDS011;55787;52.678;13.314;2022-09-13T12:19:12;11.77;;;6.22;;
68803;SDS011;55787;52.678;13.314;2022-09-13T12:21:42;11.88;;;6.82;;
68803;SDS011;55787;52.678;13.314;2022-09-13T12:24:15;12.68;;;6.30;;
68803;SDS011;55787;52.678;13.314;2022-09-13T12:27:09;12.27;;;6.40;;
68803;SDS011;55787;52.678;13.314;2022-09-13T12:29:39;13.67;;;7.17;;
68803;SDS011;55787;52.678;13.314;2022-09-13T12:32:14;13.70;;;7.10;;
68803;SDS011;55787;52.678;13.314;2022-09-13T12:43:06;12.63;;;7.07;;
68803;SDS011;55787;52.678;13.314;2022-09-13T12:48:40;12.73;;;6.95;;
68803;SDS011;55787;52.678;13.314;2022-09-13T12:51:13;13.40;;;6.82;;
68803;SDS011;55787;52.678;13.314;2022-09-13T12:56:34;12.17;;;5.87;;
68803;SDS011;55787;52.678;13.314;2022-09-13T13:02:01;11.32;;;5.60;;
68803;SDS011;55787;52.678;13.314;2022-09-13T13:04:48;9.95;;;4.55;;
68803;SDS011;55787;52.678;13.314;2022-09-13T13:07:20;9.10;;;3.80;;
68803;SDS011;55787;52.678;13.314;2022-09-13T13:09:49;9.23;;;3.67;;
68803;SDS011;55787;52.678;13.314;2022-09-13T13:14:59;8.13;;;3.15;;
68803;SDS011;55787;52.678;13.314;2022-09-13T13:17:37;7.55;;;2.80;;
68803;SDS011;55787;52.678;13.314;2022-09-13T13:31:36;7.20;;;2.67;;
68803;SDS011;55787;52.678;13.314;2022-09-13T13:36:31;7.10;;;2.63;;
68803;SDS011;55787;52.678;13.314;2022-09-13T13:41:56;9.93;;;4.40;;
68803;SDS011;55787;52.678;13.314;2022-09-13T13:46:52;7.95;;;2.53;;
68803;SDS011;55787;52.678;13.314;2022-09-13T13:57:51;7.25;;;2.10;;
68803;SDS011;55787;52.678;13.314;2022-09-13T14:00:23;6.68;;;2.40;;
68803;SDS011;55787;52.678;13.314;2022-09-13T14:05:23;7.18;;;2.50;;
68803;SDS011;55787;52.678;13.314;2022-09-13T14:08:11;7.45;;;2.60;;
68803;SDS011;55787;52.678;13.314;2022-09-13T14:10:51;6.93;;;2.30;;
68803;SDS011;55787;52.678;13.314;2022-09-13T14:13:38;6.30;;;2.15;;
68803;SDS011;55787;52.678;13.314;2022-09-13T14:21:24;9.98;;;3.88;;
68803;SDS011;55787;52.678;13.314;2022-09-13T14:26:50;6.80;;;2.08;;
68803;SDS011;55787;52.678;13.314;2022-09-13T14:29:19;7.07;;;2.10;;
68803;SDS011;55787;52.678;13.314;2022-09-13T14:31:47;7.70;;;2.70;;
68803;SDS011;55787;52.678;13.314;2022-09-13T14:34:23;8.02;;;2.60;;
68803;SDS011;55787;52.678;13.314;2022-09-13T14:36:55;7.95;;;2.17;;
68803;SDS011;55787;52.678;13.314;2022-09-13T14:39:23;6.38;;;2.10;;
68803;SDS011;55787;52.678;13.314;2022-09-13T14:41:56;6.63;;;2.07;;
68803;SDS011;55787;52.678;13.314;2022-09-13T14:44:42;8.57;;;3.17;;
68803;SDS011;55787;52.678;13.314;2022-09-13T14:47:44;7.45;;;2.33;;
68803;SDS011;55787;52.678;13.314;2022-09-13T14:50:11;7.97;;;2.20;;
68803;SDS011;55787;52.678;13.314;2022-09-13T14:52:43;6.97;;;2.08;;
68803;SDS011;55787;52.678;13.314;2022-09-13T14:55:17;6.63;;;2.10;;
68803;SDS011;55787;52.678;13.314;2022-09-13T14:57:50;6.78;;;1.90;;
68803;SDS011;55787;52.678;13.314;2022-09-13T15:00:20;6.63;;;2.30;;
68803;SDS011;55787;52.678;13.314;2022-09-13T15:02:51;6.50;;;2.22;;
68803;SDS011;55787;52.678;13.314;2022-09-13T15:05:26;6.88;;;2.30;;
68803;SDS011;55787;52.678;13.314;2022-09-13T15:07:54;7.07;;;2.17;;
68803;SDS011;55787;52.678;13.314;2022-09-13T15:10:25;9.00;;;3.50;;
68803;SDS011;55787;52.678;13.314;2022-09-13T15:15:24;6.72;;;2.17;;
68803;SDS011;55787;52.678;13.314;2022-09-13T15:17:58;7.38;;;2.63;;
68803;SDS011;55787;52.678;13.314;2022-09-13T15:20:50;6.67;;;2.33;;
68803;SDS011;55787;52.678;13.314;2022-09-13T15:23:19;7.05;;;2.80;;
68803;SDS011;55787;52.678;13.314;2022-09-13T15:25:54;6.20;;;2.30;;
68803;SDS011;55787;52.678;13.314;2022-09-13T15:28:23;6.32;;;2.25;;
68803;SDS011;55787;52.678;13.314;2022-09-13T15:30:52;6.20;;;2.33;;
68803;SDS011;55787;52.678;13.314;2022-09-13T15:33:25;6.07;;;2.23;;
68803;SDS011;55787;52.678;13.314;2022-09-13T15:44:02;7.53;;;2.25;;
68803;SDS011;55787;52.678;13.314;2022-09-13T15:46:31;9.17;;;3.43;;
68803;SDS011;55787;52.678;13.314;2022-09-13T15:49:03;7.45;;;2.80;;
68803;SDS011;55787;52.678;13.314;2022-09-13T15:51:31;7.15;;;2.50;;
68803;SDS011;55787;52.678;13.314;2022-09-13T15:54:05;6.97;;;2.42;;
68803;SDS011;55787;52.678;13.314;2022-09-13T15:56:37;8.88;;;2.50;;
68803;SDS011;55787;52.678;13.314;2022-09-13T15:59:15;6.47;;;2.27;;
68803;SDS011;55787;52.678;13.314;2022-09-13T16:01:43;6.07;;;2.10;;
68803;SDS011;55787;52.678;13.314;2022-09-13T16:04:10;6.55;;;2.60;;
68803;SDS011;55787;52.678;13.314;2022-09-13T16:06:37;6.38;;;2.35;;
68803;SDS011;55787;52.678;13.314;2022-09-13T16:09:10;6.18;;;2.30;;
68803;SDS011;55787;52.678;13.314;2022-09-13T16:11:45;7.17;;;2.47;;
68803;SDS011;55787;52.678;13.314;2022-09-13T16:14:13;6.53;;;2.05;;
68803;SDS011;55787;52.678;13.314;2022-09-13T16:16:40;7.28;;;2.72;;
68803;SDS011;55787;52.678;13.314;2022-09-13T16:19:13;7.38;;;2.10;;
68803;SDS011;55787;52.678;13.314;2022-09-13T16:21:43;7.15;;;2.45;;
68803;SDS011;55787;52.678;13.314;2022-09-13T16:24:09;6.90;;;2.80;;
68803;SDS011;55787;52.678;13.314;2022-09-13T16:26:36;7.40;;;2.80;;
68803;SDS011;55787;52.678;13.314;2022-09-13T16:29:03;7.28;;;3.03;;
68803;SDS011;55787;52.678;13.314;2022-09-13T16:31:30;7.20;;;3.20;;
68803;SDS011;55787;52.678;13.314;2022-09-13T16:33:56;7.50;;;3.40;;
68803;SDS011;55787;52.678;13.314;2022-09-13T16:36:23;8.87;;;3.03;;
68803;SDS011;55787;52.678;13.314;2022-09-13T16:38:49;8.50;;;3.85;;
68803;SDS011;55787;52.678;13.314;2022-09-13T16:41:16;8.43;;;2.97;;
68803;SDS011;55787;52.678;13.314;2022-09-13T16:43:42;9.52;;;3.22;;
68803;SDS011;55787;52.678;13.314;2022-09-13T16:46:09;7.10;;;3.10;;
68803;SDS011;55787;52.678;13.314;2022-09-13T16:48:36;9.37;;;3.10;;
68803;SDS011;55787;52.678;13.314;2022-09-13T16:51:04;7.68;;;3.20;;
68803;SDS011;55787;52.678;13.314;2022-09-13T16:53:32;8.73;;;3.10;;
68803;SDS011;55787;52.678;13.314;2022-09-13T16:56:04;8.60;;;3.17;;
68803;SDS011;55787;52.678;13.314;2022-09-13T16:58:34;6.90;;;3.15;;
68803;SDS011;55787;52.678;13.314;2022-09-13T17:01:06;9.57;;;3.13;;
68803;SDS011;55787;52.678;13.314;2022-09-13T17:03:34;7.85;;;3.08;;
68803;SDS011;55787;52.678;13.314;2022-09-13T17:06:06;9.35;;;3.38;;
68803;SDS011;55787;52.678;13.314;2022-09-13T17:08:34;7.53;;;3.35;;
68803;SDS011;55787;52.678;13.314;2022-09-13T17:11:10;7.43;;;3.20;;
68803;SDS011;55787;52.678;13.314;2022-09-13T17:13:39;9.13;;;3.63;;
68803;SDS011;55787;52.678;13.314;2022-09-13T17:16:07;8.15;;;4.07;;
68803;SDS011;55787;52.678;13.314;2022-09-13T17:18:48;9.00;;;4.03;;
68803;SDS011;55787;52.678;13.314;2022-09-13T17:21:14;8.55;;;3.70;;
68803;SDS011;55787;52.678;13.314;2022-09-13T17:23:41;9.38;;;4.70;;
68803;SDS011;55787;52.678;13.314;2022-09-13T17:26:07;13.83;;;7.27;;
68803;SDS011;55787;52.678;13.314;2022-09-13T17:28:34;17.42;;;11.98;;
68803;SDS011;55787;52.678;13.314;2022-09-13T17:31:01;17.08;;;11.07;;
68803;SDS011;55787;52.678;13.314;2022-09-13T17:33:28;21.27;;;14.43;;
68803;SDS011;55787;52.678;13.314;2022-09-13T17:35:58;13.95;;;8.25;;
68803;SDS011;55787;52.678;13.314;2022-09-13T17:38:34;11.10;;;6.43;;
68803;SDS011;55787;52.678;13.314;2022-09-13T17:41:08;11.18;;;6.13;;
68803;SDS011;55787;52.678;13.314;2022-09-13T17:43:39;9.52;;;4.30;;
68803;SDS011;55787;52.678;13.314;2022-09-13T17:46:15;9.48;;;4.03;;
68803;SDS011;55787;52.678;13.314;2022-09-13T17:48:43;9.68;;;4.10;;
68803;SDS011;55787;52.678;13.314;2022-09-13T17:51:10;9.33;;;4.00;;
68803;SDS011;55787;52.678;13.314;2022-09-13T17:53:38;9.85;;;4.20;;
68803;SDS011;55787;52.678;13.314;2022-09-13T17:56:09;9.52;;;3.92;;
68803;SDS011;55787;52.678;13.314;2022-09-13T17:58:35;9.55;;;3.97;;
68803;SDS011;55787;52.678;13.314;2022-09-13T18:01:03;11.15;;;4.50;;